sensor_id;sensor_type;location;lat;lon;timestamp;P1;durP1;ratioP1;P2;durP2;ratioP2
24279;SDS011;12395;42.808;23.408;2023-07-20T00:00:12;5.10;;;1.85;;
24279;SDS011;12395;42.808;23.408;2023-07-20T00:02:39;8.30;;;1.97;;
24279;SDS011;12395;42.808;23.408;2023-07-20T00:05:04;5.10;;;2.20;;
24279;SDS011;12395;42.808;23.408;2023-07-20T00:07:30;7.32;;;2.10;;
24279;SDS011;12395;42.808;23.408;2023-07-20T00:09:55;7.13;;;2.53;;
24279;SDS011;12395;42.808;23.408;2023-07-20T00:12:21;7.30;;;1.95;;
24279;SDS011;12395;42.808;23.408;2023-07-20T00:14:46;8.35;;;2.20;;
24279;SDS011;12395;42.808;23.408;2023-07-20T00:17:12;7.85;;;2.20;;
24279;SDS011;12395;42.808;23.408;2023-07-20T00:19:37;5.65;;;1.98;;
24279;SDS011;12395;42.808;23.408;2023-07-20T00:22:02;6.70;;;2.30;;
24279;SDS011;12395;42.808;23.408;2023-07-20T00:24:29;8.05;;;2.20;;
24279;SDS011;12395;42.808;23.408;2023-07-20T00:26:55;8.15;;;2.20;;
24279;SDS011;12395;42.808;23.408;2023-07-20T00:29:21;9.30;;;2.55;;
24279;SDS011;12395;42.808;23.408;2023-07-20T00:31:46;6.72;;;2.33;;
24279;SDS011;12395;42.808;23.408;2023-07-20T00:34:12;6.53;;;2.28;;
24279;SDS011;12395;42.808;23.408;2023-07-20T00:36:37;5.57;;;2.10;;
24279;SDS011;12395;42.808;23.408;2023-07-20T00:39:03;6.88;;;2.10;;
24279;SDS011;12395;42.808;23.408;2023-07-20T00:41:28;6.43;;;2.25;;
24279;SDS011;12395;42.808;23.408;2023-07-20T00:43:54;6.07;;;2.42;;
24279;SDS011;12395;42.808;23.408;2023-07-20T00:46:21;9.32;;;2.67;;
24279;SDS011;12395;42.808;23.408;2023-07-20T00:48:48;8.45;;;2.15;;
24279;SDS011;12395;42.808;23.408;2023-07-20T00:51:13;6.68;;;2.47;;
24279;SDS011;12395;42.808;23.408;2023-07-20T00:53:39;7.65;;;2.33;;
24279;SDS011;12395;42.808;23.408;2023-07-20T00:56:05;7.93;;;2.38;;
24279;SDS011;12395;42.808;23.408;2023-07-20T00:58:32;7.22;;;2.42;;
24279;SDS011;12395;42.808;23.408;2023-07-20T01:00:57;6.60;;;2.90;;
24279;SDS011;12395;42.808;23.408;2023-07-20T01:03:23;8.95;;;2.45;;
24279;SDS011;12395;42.808;23.408;2023-07-20T01:05:51;8.18;;;2.45;;
24279;SDS011;12395;42.808;23.408;2023-07-20T01:08:22;5.15;;;2.13;;
24279;SDS011;12395;42.808;23.408;2023-07-20T01:10:54;6.93;;;2.17;;
24279;SDS011;12395;42.808;23.408;2023-07-20T01:13:24;8.55;;;2.35;;
24279;SDS011;12395;42.808;23.408;2023-07-20T01:15:56;6.88;;;2.53;;
24279;SDS011;12395;42.808;23.408;2023-07-20T01:18:24;7.75;;;2.75;;
24279;SDS011;12395;42.808;23.408;2023-07-20T01:20:49;7.07;;;2.55;;
24279;SDS011;12395;42.808;23.408;2023-07-20T01:27:18;4.65;;;2.38;;
24279;SDS011;12395;42.808;23.408;2023-07-20T01:32:13;7.68;;;2.47;;
24279;SDS011;12395;42.808;23.408;2023-07-20T01:34:42;5.85;;;2.63;;
24279;SDS011;12395;42.808;23.408;2023-07-20T01:37:09;5.28;;;2.47;;
24279;SDS011;12395;42.808;23.408;2023-07-20T01:39:35;7.72;;;2.72;;
24279;SDS011;12395;42.808;23.408;2023-07-20T01:42:02;4.13;;;2.10;;
24279;SDS011;12395;42.808;23.408;2023-07-20T01:44:27;8.60;;;2.67;;
24279;SDS011;12395;42.808;23.408;2023-07-20T01:46:54;5.30;;;2.55;;
24279;SDS011;12395;42.808;23.408;2023-07-20T01:49:19;9.88;;;2.85;;
24279;SDS011;12395;42.808;23.408;2023-07-20T01:51:44;8.80;;;2.60;;
24279;SDS011;12395;42.808;23.408;2023-07-20T01:54:10;6.38;;;2.53;;
24279;SDS011;12395;42.808;23.408;2023-07-20T01:56:35;8.35;;;2.58;;
24279;SDS011;12395;42.808;23.408;2023-07-20T01:59:00;7.00;;;2.35;;
24279;SDS011;12395;42.808;23.408;2023-07-20T02:01:26;7.53;;;2.40;;
24279;SDS011;12395;42.808;23.408;2023-07-20T02:03:53;7.15;;;2.88;;
24279;SDS011;12395;42.808;23.408;2023-07-20T02:06:19;4.57;;;2.40;;
24279;SDS011;12395;42.808;23.408;2023-07-20T02:08:46;7.35;;;2.78;;
24279;SDS011;12395;42.808;23.408;2023-07-20T02:11:11;6.57;;;2.63;;
24279;SDS011;12395;42.808;23.408;2023-07-20T02:13:36;9.23;;;2.55;;
24279;SDS011;12395;42.808;23.408;2023-07-20T02:16:02;6.50;;;2.45;;
24279;SDS011;12395;42.808;23.408;2023-07-20T02:18:27;4.63;;;2.42;;
24279;SDS011;12395;42.808;23.408;2023-07-20T02:20:53;8.30;;;2.70;;
24279;SDS011;12395;42.808;23.408;2023-07-20T02:23:19;6.53;;;2.58;;
24279;SDS011;12395;42.808;23.408;2023-07-20T02:25:44;5.13;;;2.45;;
24279;SDS011;12395;42.808;23.408;2023-07-20T02:28:11;6.90;;;2.58;;
24279;SDS011;12395;42.808;23.408;2023-07-20T02:30:38;7.65;;;2.70;;
24279;SDS011;12395;42.808;23.408;2023-07-20T02:33:07;9.07;;;2.88;;
24279;SDS011;12395;42.808;23.408;2023-07-20T02:35:32;7.60;;;3.10;;
24279;SDS011;12395;42.808;23.408;2023-07-20T02:37:58;8.45;;;3.10;;
24279;SDS011;12395;42.808;23.408;2023-07-20T02:40:23;7.28;;;2.80;;
24279;SDS011;12395;42.808;23.408;2023-07-20T02:42:48;11.93;;;3.15;;
24279;SDS011;12395;42.808;23.408;2023-07-20T02:45:14;8.50;;;2.80;;
24279;SDS011;12395;42.808;23.408;2023-07-20T02:47:40;7.13;;;2.97;;
24279;SDS011;12395;42.808;23.408;2023-07-20T02:50:06;7.80;;;3.50;;
24279;SDS011;12395;42.808;23.408;2023-07-20T02:52:33;7.60;;;2.65;;
24279;SDS011;12395;42.808;23.408;2023-07-20T02:54:58;9.48;;;3.33;;
24279;SDS011;12395;42.808;23.408;2023-07-20T02:57:23;6.82;;;2.90;;
24279;SDS011;12395;42.808;23.408;2023-07-20T02:59:49;10.55;;;3.30;;
24279;SDS011;12395;42.808;23.408;2023-07-20T03:02:14;8.55;;;3.50;;
24279;SDS011;12395;42.808;23.408;2023-07-20T03:04:40;10.13;;;3.67;;
24279;SDS011;12395;42.808;23.408;2023-07-20T03:07:05;7.68;;;3.10;;
24279;SDS011;12395;42.808;23.408;2023-07-20T03:09:32;7.13;;;3.30;;
24279;SDS011;12395;42.808;23.408;2023-07-20T03:11:57;12.63;;;3.40;;
24279;SDS011;12395;42.808;23.408;2023-07-20T03:14:23;8.65;;;3.45;;
24279;SDS011;12395;42.808;23.408;2023-07-20T03:16:48;6.60;;;3.10;;
24279;SDS011;12395;42.808;23.408;2023-07-20T03:19:14;8.30;;;3.15;;
24279;SDS011;12395;42.808;23.408;2023-07-20T03:21:39;7.35;;;3.30;;
24279;SDS011;12395;42.808;23.408;2023-07-20T03:24:06;9.57;;;3.30;;
24279;SDS011;12395;42.808;23.408;2023-07-20T03:26:33;7.95;;;3.28;;
24279;SDS011;12395;42.808;23.408;2023-07-20T03:28:59;9.45;;;3.30;;
24279;SDS011;12395;42.808;23.408;2023-07-20T03:31:25;8.27;;;3.50;;
24279;SDS011;12395;42.808;23.408;2023-07-20T03:33:50;11.73;;;3.72;;
24279;SDS011;12395;42.808;23.408;2023-07-20T03:36:16;8.75;;;3.63;;
24279;SDS011;12395;42.808;23.408;2023-07-20T03:38:41;11.32;;;3.47;;
24279;SDS011;12395;42.808;23.408;2023-07-20T03:41:06;7.82;;;3.42;;
24279;SDS011;12395;42.808;23.408;2023-07-20T03:43:32;7.95;;;3.47;;
24279;SDS011;12395;42.808;23.408;2023-07-20T03:45:57;8.25;;;3.67;;
24279;SDS011;12395;42.808;23.408;2023-07-20T03:48:23;10.57;;;3.45;;
24279;SDS011;12395;42.808;23.408;2023-07-20T03:50:51;8.05;;;3.08;;
24279;SDS011;12395;42.808;23.408;2023-07-20T03:53:17;7.38;;;3.17;;
24279;SDS011;12395;42.808;23.408;2023-07-20T03:55:47;8.20;;;2.88;;
24279;SDS011;12395;42.808;23.408;2023-07-20T03:58:13;7.72;;;2.85;;
24279;SDS011;12395;42.808;23.408;2023-07-20T04:00:40;7.80;;;3.17;;
24279;SDS011;12395;42.808;23.408;2023-07-20T04:03:09;7.03;;;3.45;;
24279;SDS011;12395;42.808;23.408;2023-07-20T04:05:34;7.22;;;3.30;;
24279;SDS011;12395;42.808;23.408;2023-07-20T04:08:00;7.05;;;3.13;;
24279;SDS011;12395;42.808;23.408;2023-07-20T04:10:26;7.15;;;3.17;;
24279;SDS011;12395;42.808;23.408;2023-07-20T04:12:51;8.90;;;3.30;;
24279;SDS011;12395;42.808;23.408;2023-07-20T04:15:16;7.75;;;3.38;;
24279;SDS011;12395;42.808;23.408;2023-07-20T04:17:42;6.03;;;3.25;;
24279;SDS011;12395;42.808;23.408;2023-07-20T04:20:08;7.25;;;3.30;;
24279;SDS011;12395;42.808;23.408;2023-07-20T04:22:34;8.00;;;3.30;;
24279;SDS011;12395;42.808;23.408;2023-07-20T04:24:59;9.57;;;3.25;;
24279;SDS011;12395;42.808;23.408;2023-07-20T04:27:25;8.50;;;3.35;;
24279;SDS011;12395;42.808;23.408;2023-07-20T04:29:51;7.28;;;3.70;;
24279;SDS011;12395;42.808;23.408;2023-07-20T04:32:16;8.20;;;3.40;;
24279;SDS011;12395;42.808;23.408;2023-07-20T04:34:42;5.68;;;3.35;;
24279;SDS011;12395;42.808;23.408;2023-07-20T04:37:07;8.05;;;3.55;;
24279;SDS011;12395;42.808;23.408;2023-07-20T04:39:33;8.95;;;3.50;;
24279;SDS011;12395;42.808;23.408;2023-07-20T04:41:58;8.88;;;3.17;;
24279;SDS011;12395;42.808;23.408;2023-07-20T04:44:24;8.70;;;3.45;;
24279;SDS011;12395;42.808;23.408;2023-07-20T04:46:49;10.57;;;3.80;;
24279;SDS011;12395;42.808;23.408;2023-07-20T04:49:15;6.85;;;3.10;;
24279;SDS011;12395;42.808;23.408;2023-07-20T04:51:40;8.35;;;3.30;;
24279;SDS011;12395;42.808;23.408;2023-07-20T04:54:05;8.68;;;3.47;;
24279;SDS011;12395;42.808;23.408;2023-07-20T04:56:31;7.22;;;3.38;;
24279;SDS011;12395;42.808;23.408;2023-07-20T04:58:56;6.80;;;3.30;;
24279;SDS011;12395;42.808;23.408;2023-07-20T05:01:22;8.23;;;3.63;;
24279;SDS011;12395;42.808;23.408;2023-07-20T05:03:48;11.00;;;3.72;;
24279;SDS011;12395;42.808;23.408;2023-07-20T05:06:14;6.82;;;3.50;;
24279;SDS011;12395;42.808;23.408;2023-07-20T05:08:39;9.15;;;3.42;;
24279;SDS011;12395;42.808;23.408;2023-07-20T05:11:05;11.85;;;3.30;;
24279;SDS011;12395;42.808;23.408;2023-07-20T05:13:30;5.88;;;3.10;;
24279;SDS011;12395;42.808;23.408;2023-07-20T05:15:56;8.65;;;3.30;;
24279;SDS011;12395;42.808;23.408;2023-07-20T05:18:21;11.38;;;3.35;;
24279;SDS011;12395;42.808;23.408;2023-07-20T05:20:48;9.18;;;3.70;;
24279;SDS011;12395;42.808;23.408;2023-07-20T05:23:19;6.75;;;2.95;;
24279;SDS011;12395;42.808;23.408;2023-07-20T05:25:53;10.60;;;3.35;;
24279;SDS011;12395;42.808;23.408;2023-07-20T05:28:19;7.55;;;3.30;;
24279;SDS011;12395;42.808;23.408;2023-07-20T05:30:45;10.23;;;3.20;;
24279;SDS011;12395;42.808;23.408;2023-07-20T05:33:10;10.90;;;3.33;;
24279;SDS011;12395;42.808;23.408;2023-07-20T05:35:36;9.50;;;3.67;;
24279;SDS011;12395;42.808;23.408;2023-07-20T05:38:02;8.85;;;3.40;;
24279;SDS011;12395;42.808;23.408;2023-07-20T05:40:30;8.82;;;3.50;;
24279;SDS011;12395;42.808;23.408;2023-07-20T05:42:55;9.02;;;3.67;;
24279;SDS011;12395;42.808;23.408;2023-07-20T05:45:22;8.00;;;3.77;;
24279;SDS011;12395;42.808;23.408;2023-07-20T05:47:47;10.93;;;4.03;;
24279;SDS011;12395;42.808;23.408;2023-07-20T05:50:13;7.57;;;3.15;;
24279;SDS011;12395;42.808;23.408;2023-07-20T05:52:39;8.63;;;3.80;;
24279;SDS011;12395;42.808;23.408;2023-07-20T05:55:05;10.43;;;3.67;;
24279;SDS011;12395;42.808;23.408;2023-07-20T05:57:31;8.30;;;3.35;;
24279;SDS011;12395;42.808;23.408;2023-07-20T05:59:57;11.40;;;3.53;;
24279;SDS011;12395;42.808;23.408;2023-07-20T06:02:22;10.50;;;4.18;;
24279;SDS011;12395;42.808;23.408;2023-07-20T06:04:48;7.32;;;3.53;;
24279;SDS011;12395;42.808;23.408;2023-07-20T06:07:13;10.38;;;3.70;;
24279;SDS011;12395;42.808;23.408;2023-07-20T06:09:39;7.68;;;3.47;;
24279;SDS011;12395;42.808;23.408;2023-07-20T06:12:05;8.73;;;3.83;;
24279;SDS011;12395;42.808;23.408;2023-07-20T06:14:30;10.38;;;3.70;;
24279;SDS011;12395;42.808;23.408;2023-07-20T06:16:56;9.70;;;4.00;;
24279;SDS011;12395;42.808;23.408;2023-07-20T06:19:21;11.23;;;4.10;;
24279;SDS011;12395;42.808;23.408;2023-07-20T06:21:47;9.85;;;3.80;;
24279;SDS011;12395;42.808;23.408;2023-07-20T06:24:14;11.82;;;4.15;;
24279;SDS011;12395;42.808;23.408;2023-07-20T06:26:40;7.63;;;3.70;;
24279;SDS011;12395;42.808;23.408;2023-07-20T06:29:05;8.90;;;3.90;;
24279;SDS011;12395;42.808;23.408;2023-07-20T06:31:37;8.38;;;3.83;;
24279;SDS011;12395;42.808;23.408;2023-07-20T06:34:03;9.07;;;4.13;;
24279;SDS011;12395;42.808;23.408;2023-07-20T06:36:28;8.43;;;3.80;;
24279;SDS011;12395;42.808;23.408;2023-07-20T06:38:54;9.52;;;3.80;;
24279;SDS011;12395;42.808;23.408;2023-07-20T06:41:20;9.77;;;3.58;;
24279;SDS011;12395;42.808;23.408;2023-07-20T06:43:46;10.27;;;3.80;;
24279;SDS011;12395;42.808;23.408;2023-07-20T06:46:12;6.00;;;3.28;;
24279;SDS011;12395;42.808;23.408;2023-07-20T06:48:37;7.07;;;3.50;;
24279;SDS011;12395;42.808;23.408;2023-07-20T06:51:02;8.50;;;3.50;;
24279;SDS011;12395;42.808;23.408;2023-07-20T06:53:28;11.60;;;3.90;;
24279;SDS011;12395;42.808;23.408;2023-07-20T06:55:54;9.30;;;4.00;;
24279;SDS011;12395;42.808;23.408;2023-07-20T06:58:23;8.98;;;4.00;;
24279;SDS011;12395;42.808;23.408;2023-07-20T07:00:48;9.13;;;4.10;;
24279;SDS011;12395;42.808;23.408;2023-07-20T07:03:14;11.15;;;4.45;;
24279;SDS011;12395;42.808;23.408;2023-07-20T07:05:39;11.30;;;4.20;;
24279;SDS011;12395;42.808;23.408;2023-07-20T07:08:05;8.40;;;4.35;;
24279;SDS011;12395;42.808;23.408;2023-07-20T07:10:31;9.68;;;4.53;;
24279;SDS011;12395;42.808;23.408;2023-07-20T07:12:56;9.60;;;4.13;;
24279;SDS011;12395;42.808;23.408;2023-07-20T07:15:22;12.95;;;3.80;;
24279;SDS011;12395;42.808;23.408;2023-07-20T07:17:47;7.68;;;3.53;;
24279;SDS011;12395;42.808;23.408;2023-07-20T07:20:13;8.52;;;3.70;;
24279;SDS011;12395;42.808;23.408;2023-07-20T07:22:38;11.02;;;3.63;;
24279;SDS011;12395;42.808;23.408;2023-07-20T07:25:04;10.00;;;3.80;;
24279;SDS011;12395;42.808;23.408;2023-07-20T07:27:29;10.10;;;3.83;;
24279;SDS011;12395;42.808;23.408;2023-07-20T07:29:55;9.80;;;3.95;;
24279;SDS011;12395;42.808;23.408;2023-07-20T07:32:20;10.73;;;3.97;;
24279;SDS011;12395;42.808;23.408;2023-07-20T07:34:46;7.07;;;3.50;;
24279;SDS011;12395;42.808;23.408;2023-07-20T07:37:12;10.05;;;4.00;;
24279;SDS011;12395;42.808;23.408;2023-07-20T07:39:38;9.75;;;3.92;;
24279;SDS011;12395;42.808;23.408;2023-07-20T07:42:04;8.65;;;3.22;;
24279;SDS011;12395;42.808;23.408;2023-07-20T07:44:30;7.30;;;3.40;;
24279;SDS011;12395;42.808;23.408;2023-07-20T07:46:56;12.90;;;3.97;;
24279;SDS011;12395;42.808;23.408;2023-07-20T07:49:21;6.57;;;3.40;;
24279;SDS011;12395;42.808;23.408;2023-07-20T07:51:47;9.43;;;3.50;;
24279;SDS011;12395;42.808;23.408;2023-07-20T07:54:12;10.75;;;3.63;;
24279;SDS011;12395;42.808;23.408;2023-07-20T07:56:37;7.32;;;3.30;;
24279;SDS011;12395;42.808;23.408;2023-07-20T07:59:03;8.85;;;3.33;;
24279;SDS011;12395;42.808;23.408;2023-07-20T08:01:29;8.20;;;3.60;;
24279;SDS011;12395;42.808;23.408;2023-07-20T08:03:55;8.88;;;3.55;;
24279;SDS011;12395;42.808;23.408;2023-07-20T08:06:21;8.10;;;3.22;;
24279;SDS011;12395;42.808;23.408;2023-07-20T08:08:46;9.02;;;3.67;;
24279;SDS011;12395;42.808;23.408;2023-07-20T08:11:12;7.65;;;3.00;;
24279;SDS011;12395;42.808;23.408;2023-07-20T08:13:38;9.23;;;3.30;;
24279;SDS011;12395;42.808;23.408;2023-07-20T08:16:03;9.13;;;3.30;;
24279;SDS011;12395;42.808;23.408;2023-07-20T08:18:29;8.23;;;3.17;;
24279;SDS011;12395;42.808;23.408;2023-07-20T08:20:56;9.05;;;3.10;;
24279;SDS011;12395;42.808;23.408;2023-07-20T08:25:47;7.18;;;3.40;;
24279;SDS011;12395;42.808;23.408;2023-07-20T08:28:13;9.95;;;3.60;;
24279;SDS011;12395;42.808;23.408;2023-07-20T08:30:43;9.85;;;3.10;;
24279;SDS011;12395;42.808;23.408;2023-07-20T08:33:10;9.50;;;3.25;;
24279;SDS011;12395;42.808;23.408;2023-07-20T08:35:37;6.95;;;2.65;;
24279;SDS011;12395;42.808;23.408;2023-07-20T08:38:03;6.22;;;3.13;;
24279;SDS011;12395;42.808;23.408;2023-07-20T08:40:30;9.50;;;3.23;;
24279;SDS011;12395;42.808;23.408;2023-07-20T08:42:59;6.88;;;2.83;;
24279;SDS011;12395;42.808;23.408;2023-07-20T08:45:28;7.57;;;2.80;;
24279;SDS011;12395;42.808;23.408;2023-07-20T08:47:55;5.85;;;2.35;;
24279;SDS011;12395;42.808;23.408;2023-07-20T08:50:27;5.60;;;2.30;;
24279;SDS011;12395;42.808;23.408;2023-07-20T08:52:56;6.63;;;2.22;;
24279;SDS011;12395;42.808;23.408;2023-07-20T08:55:23;7.68;;;2.60;;
24279;SDS011;12395;42.808;23.408;2023-07-20T08:57:51;5.53;;;2.30;;
24279;SDS011;12395;42.808;23.408;2023-07-20T09:00:19;7.57;;;2.30;;
24279;SDS011;12395;42.808;23.408;2023-07-20T09:02:45;6.13;;;2.10;;
24279;SDS011;12395;42.808;23.408;2023-07-20T09:05:13;4.57;;;2.15;;
24279;SDS011;12395;42.808;23.408;2023-07-20T09:07:39;6.40;;;2.20;;
24279;SDS011;12395;42.808;23.408;2023-07-20T09:10:06;8.50;;;2.17;;
24279;SDS011;12395;42.808;23.408;2023-07-20T09:12:35;5.28;;;2.40;;
24279;SDS011;12395;42.808;23.408;2023-07-20T09:15:02;5.32;;;2.20;;
24279;SDS011;12395;42.808;23.408;2023-07-20T09:17:27;7.50;;;2.15;;
24279;SDS011;12395;42.808;23.408;2023-07-20T09:19:53;5.45;;;2.10;;
24279;SDS011;12395;42.808;23.408;2023-07-20T09:22:19;7.75;;;2.10;;
24279;SDS011;12395;42.808;23.408;2023-07-20T09:24:44;6.35;;;2.20;;
24279;SDS011;12395;42.808;23.408;2023-07-20T09:27:10;6.60;;;2.08;;
24279;SDS011;12395;42.808;23.408;2023-07-20T09:29:48;7.60;;;2.53;;
24279;SDS011;12395;42.808;23.408;2023-07-20T09:32:17;6.15;;;2.40;;
24279;SDS011;12395;42.808;23.408;2023-07-20T09:34:44;5.45;;;2.20;;
24279;SDS011;12395;42.808;23.408;2023-07-20T09:37:10;8.02;;;2.15;;
24279;SDS011;12395;42.808;23.408;2023-07-20T09:39:42;8.20;;;2.25;;
24279;SDS011;12395;42.808;23.408;2023-07-20T09:42:10;6.68;;;2.10;;
24279;SDS011;12395;42.808;23.408;2023-07-20T09:44:37;6.60;;;2.25;;
24279;SDS011;12395;42.808;23.408;2023-07-20T09:47:04;5.90;;;2.20;;
24279;SDS011;12395;42.808;23.408;2023-07-20T09:49:29;5.88;;;2.08;;
24279;SDS011;12395;42.808;23.408;2023-07-20T09:51:55;6.70;;;2.10;;
24279;SDS011;12395;42.808;23.408;2023-07-20T09:54:22;7.50;;;2.10;;
24279;SDS011;12395;42.808;23.408;2023-07-20T09:56:49;3.25;;;1.83;;
24279;SDS011;12395;42.808;23.408;2023-07-20T09:59:17;7.72;;;2.05;;
24279;SDS011;12395;42.808;23.408;2023-07-20T10:01:42;5.55;;;2.20;;
24279;SDS011;12395;42.808;23.408;2023-07-20T10:04:09;5.00;;;1.80;;
24279;SDS011;12395;42.808;23.408;2023-07-20T10:06:37;5.10;;;1.90;;
24279;SDS011;12395;42.808;23.408;2023-07-20T10:09:07;7.57;;;2.00;;
24279;SDS011;12395;42.808;23.408;2023-07-20T10:11:35;3.38;;;1.80;;
24279;SDS011;12395;42.808;23.408;2023-07-20T10:14:04;6.07;;;2.10;;
24279;SDS011;12395;42.808;23.408;2023-07-20T10:16:36;4.88;;;2.00;;
24279;SDS011;12395;42.808;23.408;2023-07-20T10:19:11;3.60;;;1.98;;
24279;SDS011;12395;42.808;23.408;2023-07-20T10:21:43;6.00;;;1.90;;
24279;SDS011;12395;42.808;23.408;2023-07-20T10:24:13;6.85;;;2.00;;
24279;SDS011;12395;42.808;23.408;2023-07-20T10:26:40;6.07;;;2.13;;
24279;SDS011;12395;42.808;23.408;2023-07-20T10:29:06;7.07;;;2.30;;
24279;SDS011;12395;42.808;23.408;2023-07-20T10:31:32;6.45;;;2.10;;
24279;SDS011;12395;42.808;23.408;2023-07-20T10:33:59;5.38;;;2.05;;
24279;SDS011;12395;42.808;23.408;2023-07-20T10:36:26;8.02;;;2.00;;
24279;SDS011;12395;42.808;23.408;2023-07-20T10:38:55;6.88;;;2.10;;
24279;SDS011;12395;42.808;23.408;2023-07-20T10:41:29;6.47;;;2.10;;
24279;SDS011;12395;42.808;23.408;2023-07-20T10:44:02;7.03;;;1.95;;
24279;SDS011;12395;42.808;23.408;2023-07-20T10:49:04;8.17;;;2.20;;
24279;SDS011;12395;42.808;23.408;2023-07-20T10:51:43;9.02;;;2.47;;
24279;SDS011;12395;42.808;23.408;2023-07-20T10:56:49;7.90;;;2.17;;
24279;SDS011;12395;42.808;23.408;2023-07-20T11:01:47;6.95;;;2.00;;
24279;SDS011;12395;42.808;23.408;2023-07-20T11:04:15;5.28;;;1.92;;
24279;SDS011;12395;42.808;23.408;2023-07-20T11:06:43;4.63;;;1.92;;
24279;SDS011;12395;42.808;23.408;2023-07-20T11:09:10;7.07;;;2.57;;
24279;SDS011;12395;42.808;23.408;2023-07-20T11:11:43;7.72;;;1.92;;
24279;SDS011;12395;42.808;23.408;2023-07-20T11:14:21;5.93;;;2.15;;
24279;SDS011;12395;42.808;23.408;2023-07-20T11:16:47;6.28;;;1.73;;
24279;SDS011;12395;42.808;23.408;2023-07-20T11:19:17;10.38;;;2.22;;
24279;SDS011;12395;42.808;23.408;2023-07-20T11:21:48;6.10;;;2.28;;
24279;SDS011;12395;42.808;23.408;2023-07-20T11:24:16;9.50;;;2.30;;
24279;SDS011;12395;42.808;23.408;2023-07-20T11:26:43;4.53;;;2.00;;
24279;SDS011;12395;42.808;23.408;2023-07-20T11:31:35;7.15;;;2.20;;
24279;SDS011;12395;42.808;23.408;2023-07-20T11:34:02;6.32;;;2.08;;
24279;SDS011;12395;42.808;23.408;2023-07-20T11:36:27;9.47;;;2.87;;
24279;SDS011;12395;42.808;23.408;2023-07-20T11:38:53;9.40;;;2.53;;
24279;SDS011;12395;42.808;23.408;2023-07-20T11:41:19;8.55;;;2.38;;
24279;SDS011;12395;42.808;23.408;2023-07-20T11:43:45;10.15;;;2.58;;
24279;SDS011;12395;42.808;23.408;2023-07-20T11:46:10;7.27;;;2.53;;
24279;SDS011;12395;42.808;23.408;2023-07-20T11:48:36;7.37;;;2.23;;
24279;SDS011;12395;42.808;23.408;2023-07-20T11:51:01;5.73;;;2.23;;
24279;SDS011;12395;42.808;23.408;2023-07-20T11:53:27;5.27;;;2.50;;
24279;SDS011;12395;42.808;23.408;2023-07-20T11:55:52;6.90;;;2.35;;
24279;SDS011;12395;42.808;23.408;2023-07-20T11:58:19;9.38;;;2.60;;
24279;SDS011;12395;42.808;23.408;2023-07-20T12:00:44;10.93;;;2.57;;
24279;SDS011;12395;42.808;23.408;2023-07-20T12:03:11;6.10;;;2.47;;
24279;SDS011;12395;42.808;23.408;2023-07-20T12:05:40;8.32;;;2.58;;
24279;SDS011;12395;42.808;23.408;2023-07-20T12:08:05;8.32;;;2.80;;
24279;SDS011;12395;42.808;23.408;2023-07-20T12:10:31;6.32;;;2.50;;
24279;SDS011;12395;42.808;23.408;2023-07-20T12:13:02;4.95;;;2.10;;
24279;SDS011;12395;42.808;23.408;2023-07-20T12:15:29;5.80;;;2.35;;
24279;SDS011;12395;42.808;23.408;2023-07-20T12:17:59;6.28;;;2.25;;
24279;SDS011;12395;42.808;23.408;2023-07-20T12:22:55;8.15;;;2.50;;
24279;SDS011;12395;42.808;23.408;2023-07-20T12:25:22;6.60;;;2.28;;
24279;SDS011;12395;42.808;23.408;2023-07-20T12:27:47;8.20;;;2.37;;
24279;SDS011;12395;42.808;23.408;2023-07-20T12:30:13;8.37;;;2.20;;
24279;SDS011;12395;42.808;23.408;2023-07-20T12:32:39;7.83;;;2.50;;
24279;SDS011;12395;42.808;23.408;2023-07-20T12:35:05;5.43;;;2.20;;
24279;SDS011;12395;42.808;23.408;2023-07-20T12:37:31;9.73;;;2.33;;
24279;SDS011;12395;42.808;23.408;2023-07-20T12:39:56;5.90;;;2.20;;
24279;SDS011;12395;42.808;23.408;2023-07-20T12:42:22;5.18;;;2.13;;
24279;SDS011;12395;42.808;23.408;2023-07-20T12:44:48;5.53;;;2.70;;
24279;SDS011;12395;42.808;23.408;2023-07-20T12:47:15;5.57;;;2.50;;
24279;SDS011;12395;42.808;23.408;2023-07-20T12:49:44;6.15;;;2.45;;
24279;SDS011;12395;42.808;23.408;2023-07-20T12:52:12;7.90;;;2.42;;
24279;SDS011;12395;42.808;23.408;2023-07-20T12:54:37;10.07;;;2.47;;
24279;SDS011;12395;42.808;23.408;2023-07-20T12:57:03;6.30;;;2.23;;
24279;SDS011;12395;42.808;23.408;2023-07-20T12:59:29;6.83;;;2.10;;
24279;SDS011;12395;42.808;23.408;2023-07-20T13:01:54;7.53;;;2.57;;
24279;SDS011;12395;42.808;23.408;2023-07-20T13:04:19;6.70;;;2.40;;
24279;SDS011;12395;42.808;23.408;2023-07-20T13:06:45;10.67;;;2.40;;
24279;SDS011;12395;42.808;23.408;2023-07-20T13:09:10;4.60;;;2.00;;
24279;SDS011;12395;42.808;23.408;2023-07-20T13:11:36;6.50;;;2.07;;
24279;SDS011;12395;42.808;23.408;2023-07-20T13:14:01;7.43;;;2.28;;
24279;SDS011;12395;42.808;23.408;2023-07-20T13:16:26;4.73;;;2.07;;
24279;SDS011;12395;42.808;23.408;2023-07-20T13:18:52;5.80;;;2.10;;
24279;SDS011;12395;42.808;23.408;2023-07-20T13:21:18;7.97;;;2.27;;
24279;SDS011;12395;42.808;23.408;2023-07-20T13:23:47;5.25;;;1.95;;
24279;SDS011;12395;42.808;23.408;2023-07-20T13:26:13;8.63;;;2.17;;
24279;SDS011;12395;42.808;23.408;2023-07-20T13:28:39;10.98;;;2.40;;
24279;SDS011;12395;42.808;23.408;2023-07-20T13:31:04;3.40;;;1.90;;
24279;SDS011;12395;42.808;23.408;2023-07-20T13:33:30;8.07;;;2.30;;
24279;SDS011;12395;42.808;23.408;2023-07-20T13:35:55;6.73;;;2.10;;
24279;SDS011;12395;42.808;23.408;2023-07-20T13:38:21;8.63;;;2.10;;
24279;SDS011;12395;42.808;23.408;2023-07-20T13:40:47;5.35;;;1.80;;
24279;SDS011;12395;42.808;23.408;2023-07-20T13:43:12;7.82;;;2.10;;
24279;SDS011;12395;42.808;23.408;2023-07-20T13:45:38;7.00;;;2.03;;
24279;SDS011;12395;42.808;23.408;2023-07-20T13:48:03;3.63;;;1.90;;
24279;SDS011;12395;42.808;23.408;2023-07-20T13:50:28;7.63;;;2.20;;
24279;SDS011;12395;42.808;23.408;2023-07-20T13:52:54;6.28;;;2.20;;
24279;SDS011;12395;42.808;23.408;2023-07-20T13:55:19;5.23;;;1.80;;
24279;SDS011;12395;42.808;23.408;2023-07-20T13:57:45;5.30;;;1.87;;
24279;SDS011;12395;42.808;23.408;2023-07-20T14:00:10;8.70;;;2.17;;
24279;SDS011;12395;42.808;23.408;2023-07-20T14:02:37;5.40;;;1.80;;
24279;SDS011;12395;42.808;23.408;2023-07-20T14:05:02;4.63;;;1.92;;
24279;SDS011;12395;42.808;23.408;2023-07-20T14:07:28;6.55;;;2.10;;
24279;SDS011;12395;42.808;23.408;2023-07-20T14:09:53;6.55;;;2.00;;
24279;SDS011;12395;42.808;23.408;2023-07-20T14:12:18;5.80;;;2.10;;
24279;SDS011;12395;42.808;23.408;2023-07-20T14:14:44;8.32;;;2.22;;
24279;SDS011;12395;42.808;23.408;2023-07-20T14:17:10;6.20;;;2.40;;
24279;SDS011;12395;42.808;23.408;2023-07-20T14:19:37;5.67;;;2.10;;
24279;SDS011;12395;42.808;23.408;2023-07-20T14:22:02;9.63;;;2.33;;
24279;SDS011;12395;42.808;23.408;2023-07-20T14:24:28;6.93;;;1.95;;
24279;SDS011;12395;42.808;23.408;2023-07-20T14:26:54;7.75;;;2.10;;
24279;SDS011;12395;42.808;23.408;2023-07-20T14:29:20;6.40;;;1.93;;
24279;SDS011;12395;42.808;23.408;2023-07-20T14:31:45;4.77;;;2.10;;
24279;SDS011;12395;42.808;23.408;2023-07-20T14:34:15;5.10;;;2.08;;
24279;SDS011;12395;42.808;23.408;2023-07-20T14:36:44;5.80;;;1.77;;
24279;SDS011;12395;42.808;23.408;2023-07-20T14:39:09;5.95;;;1.98;;
24279;SDS011;12395;42.808;23.408;2023-07-20T14:41:35;6.83;;;2.37;;
24279;SDS011;12395;42.808;23.408;2023-07-20T14:44:00;4.57;;;2.00;;
24279;SDS011;12395;42.808;23.408;2023-07-20T14:46:26;6.00;;;1.90;;
24279;SDS011;12395;42.808;23.408;2023-07-20T14:48:51;6.43;;;2.17;;